sensor_id;sensor_type;location;lat;lon;timestamp;pressure;altitude;pressure_sealevel;temperature;humidity
78056;BME280;67666;55.862;49.094;2023-02-12T18:26:26;100492.13;;;23.80;19.39
78056;BME280;67666;55.862;49.094;2023-02-12T18:28:53;100470.94;;;23.88;18.68
78056;BME280;67666;55.862;49.094;2023-02-12T18:33:08;100481.97;;;23.32;20.91
78056;BME280;67666;55.862;49.094;2023-02-12T18:49:01;100490.84;;;22.88;18.89
78056;BME280;67666;55.862;49.094;2023-02-12T18:51:29;100472.97;;;22.23;19.08
78056;BME280;67666;55.862;49.094;2023-02-12T18:53:59;100466.41;;;22.01;19.39
78056;BME280;67666;55.862;49.094;2023-02-12T19:09:50;100461.63;;;22.26;19.83
78056;BME280;67666;55.862;49.094;2023-02-12T19:12:17;100481.09;;;22.09;20.27
78056;BME280;67666;55.862;49.094;2023-02-12T19:14:46;100473.81;;;21.79;19.98
78056;BME280;67666;55.862;49.094;2023-02-12T19:17:12;100458.31;;;21.68;19.03
78056;BME280;67666;55.862;49.094;2023-02-12T19:19:39;100455.00;;;21.58;19.37
78056;BME280;67666;55.862;49.094;2023-02-12T19:22:05;100454.13;;;21.59;19.59
78056;BME280;67666;55.862;49.094;2023-02-12T19:24:31;100447.13;;;21.61;19.98
78056;BME280;67666;55.862;49.094;2023-02-12T19:26:58;100450.34;;;21.76;20.37
78056;BME280;67666;55.862;49.094;2023-02-12T19:29:24;100452.13;;;21.74;22.75
78056;BME280;67666;55.862;49.094;2023-02-12T19:31:50;100447.09;;;21.63;25.42
78056;BME280;67666;55.862;49.094;2023-02-12T19:34:19;100453.31;;;21.54;27.54
78056;BME280;67666;55.862;49.094;2023-02-12T19:36:47;100481.19;;;21.55;30.23
78056;BME280;67666;55.862;49.094;2023-02-12T19:39:16;100457.75;;;21.51;27.69
78056;BME280;67666;55.862;49.094;2023-02-12T19:41:42;100453.38;;;21.53;28.58
78056;BME280;67666;55.862;49.094;2023-02-12T19:44:12;100453.44;;;21.48;29.36
78056;BME280;67666;55.862;49.094;2023-02-12T19:46:39;100442.19;;;21.43;29.63
78056;BME280;67666;55.862;49.094;2023-02-12T19:49:06;100450.03;;;21.43;30.48
78056;BME280;67666;55.862;49.094;2023-02-12T19:51:33;100455.25;;;21.43;29.99
78056;BME280;67666;55.862;49.094;2023-02-12T19:54:01;100452.69;;;21.41;30.14
78056;BME280;67666;55.862;49.094;2023-02-12T19:56:27;100456.19;;;21.40;30.59
78056;BME280;67666;55.862;49.094;2023-02-12T19:58:55;100450.84;;;21.47;30.13
78056;BME280;67666;55.862;49.094;2023-02-12T20:01:23;100454.41;;;21.42;30.09
78056;BME280;67666;55.862;49.094;2023-02-12T20:03:49;100464.09;;;21.36;30.48
78056;BME280;67666;55.862;49.094;2023-02-12T20:06:19;100458.84;;;21.39;30.28
78056;BME280;67666;55.862;49.094;2023-02-12T20:08:46;100449.28;;;21.36;30.04
78056;BME280;67666;55.862;49.094;2023-02-12T20:11:16;100458.81;;;21.40;29.95
78056;BME280;67666;55.862;49.094;2023-02-12T20:13:43;100462.28;;;21.41;30.27
78056;BME280;67666;55.862;49.094;2023-02-12T20:16:13;100455.34;;;21.40;30.31
78056;BME280;67666;55.862;49.094;2023-02-12T20:18:43;100456.22;;;21.39;30.13
78056;BME280;67666;55.862;49.094;2023-02-12T20:21:22;100457.03;;;21.41;29.33
78056;BME280;67666;55.862;49.094;2023-02-12T20:23:49;100465.81;;;21.37;28.83
78056;BME280;67666;55.862;49.094;2023-02-12T20:26:16;100461.41;;;21.40;28.68
78056;BME280;67666;55.862;49.094;2023-02-12T20:28:45;100458.00;;;21.35;28.56
78056;BME280;67666;55.862;49.094;2023-02-12T20:31:17;100464.84;;;21.42;28.12
78056;BME280;67666;55.862;49.094;2023-02-12T20:33:44;100457.84;;;21.46;28.32
78056;BME280;67666;55.862;49.094;2023-02-12T20:36:12;100454.41;;;21.42;27.95
78056;BME280;67666;55.862;49.094;2023-02-12T20:38:40;100452.66;;;21.45;27.59
78056;BME280;67666;55.862;49.094;2023-02-12T20:41:08;100449.09;;;21.47;27.37
78056;BME280;67666;55.862;49.094;2023-02-12T20:43:35;100456.91;;;21.49;27.24
78056;BME280;67666;55.862;49.094;2023-02-12T20:46:07;100450.72;;;21.54;27.10
78056;BME280;67666;55.862;49.094;2023-02-12T20:48:33;100448.97;;;21.55;26.85
78056;BME280;67666;55.862;49.094;2023-02-12T20:51:04;100453.75;;;21.30;25.86
78056;BME280;67666;55.862;49.094;2023-02-12T20:53:33;100451.81;;;20.84;26.08
78056;BME280;67666;55.862;49.094;2023-02-12T20:56:04;100457.38;;;20.61;26.60
78056;BME280;67666;55.862;49.094;2023-02-12T20:58:30;100456.59;;;20.54;26.65
78056;BME280;67666;55.862;49.094;2023-02-12T21:01:05;100458.34;;;20.51;26.99
78056;BME280;67666;55.862;49.094;2023-02-12T21:03:32;100452.34;;;20.43;27.12
78056;BME280;67666;55.862;49.094;2023-02-12T21:05:58;100457.56;;;20.43;26.78
78056;BME280;67666;55.862;49.094;2023-02-12T21:08:25;100445.41;;;20.43;26.68
78056;BME280;67666;55.862;49.094;2023-02-12T21:11:32;100448.88;;;20.42;26.33
78056;BME280;67666;55.862;49.094;2023-02-12T21:13:53;100452.34;;;20.43;26.47
78056;BME280;67666;55.862;49.094;2023-02-12T21:16:26;100444.59;;;20.38;26.33
78056;BME280;67666;55.862;49.094;2023-02-12T21:18:53;100451.53;;;20.39;26.08
78056;BME280;67666;55.862;49.094;2023-02-12T21:21:23;100446.31;;;20.36;26.47
78056;BME280;67666;55.862;49.094;2023-02-12T21:23:51;100447.25;;;20.33;26.02
78056;BME280;67666;55.862;49.094;2023-02-12T21:26:19;100450.78;;;20.31;25.75
78056;BME280;67666;55.862;49.094;2023-02-12T21:28:48;100453.28;;;20.38;25.95
78056;BME280;67666;55.862;49.094;2023-02-12T21:31:19;100438.50;;;20.37;25.92
78056;BME280;67666;55.862;49.094;2023-02-12T21:33:48;100444.59;;;20.35;25.79
78056;BME280;67666;55.862;49.094;2023-02-12T21:36:18;100441.16;;;20.33;25.46
78056;BME280;67666;55.862;49.094;2023-02-12T21:38:46;100434.19;;;20.33;25.37
78056;BME280;67666;55.862;49.094;2023-02-12T21:41:15;100428.88;;;20.43;25.20
78056;BME280;67666;55.862;49.094;2023-02-12T21:43:44;100439.41;;;20.36;24.95
78056;BME280;67666;55.862;49.094;2023-02-12T21:46:11;100428.88;;;20.41;24.94
78056;BME280;67666;55.862;49.094;2023-02-12T21:48:40;100437.66;;;20.37;24.74
78056;BME280;67666;55.862;49.094;2023-02-12T21:51:18;100437.72;;;20.29;24.68
78056;BME280;67666;55.862;49.094;2023-02-12T21:53:46;100437.66;;;20.37;24.54
78056;BME280;67666;55.862;49.094;2023-02-12T21:56:13;100442.75;;;20.46;24.18
78056;BME280;67666;55.862;49.094;2023-02-12T21:58:40;100438.59;;;20.30;24.24
78056;BME280;67666;55.862;49.094;2023-02-12T22:01:12;100442.09;;;20.27;24.08
78056;BME280;67666;55.862;49.094;2023-02-12T22:03:39;100436.06;;;20.25;24.16
78056;BME280;67666;55.862;49.094;2023-02-12T22:06:07;100438.69;;;20.22;24.13
78056;BME280;67666;55.862;49.094;2023-02-12T22:08:34;100435.97;;;20.31;24.17
78056;BME280;67666;55.862;49.094;2023-02-12T22:11:05;100434.31;;;20.24;24.14
78056;BME280;67666;55.862;49.094;2023-02-12T22:13:31;100433.44;;;20.24;23.90
78056;BME280;67666;55.862;49.094;2023-02-12T22:18:44;100433.41;;;20.28;23.53
78056;BME280;67666;55.862;49.094;2023-02-12T22:21:12;100439.53;;;20.26;24.01
78056;BME280;67666;55.862;49.094;2023-02-12T22:23:39;100442.06;;;20.32;23.41
78056;BME280;67666;55.862;49.094;2023-02-12T22:26:07;100434.31;;;20.26;23.32
78056;BME280;67666;55.862;49.094;2023-02-12T22:28:39;100430.75;;;20.30;23.35
78056;BME280;67666;55.862;49.094;2023-02-12T22:31:07;100434.31;;;20.26;23.31
78056;BME280;67666;55.862;49.094;2023-02-12T22:33:34;100429.00;;;20.32;23.00
78056;BME280;67666;55.862;49.094;2023-02-12T22:36:02;100430.81;;;20.27;23.14
78056;BME280;67666;55.862;49.094;2023-02-12T22:38:29;100436.78;;;20.36;22.88
78056;BME280;67666;55.862;49.094;2023-02-12T22:40:55;100434.25;;;20.29;23.16
78056;BME280;67666;55.862;49.094;2023-02-12T22:43:21;100443.84;;;20.27;23.00
78056;BME280;67666;55.862;49.094;2023-02-12T22:45:48;100446.47;;;20.27;22.82
78056;BME280;67666;55.862;49.094;2023-02-12T22:48:14;100427.22;;;20.37;22.54
78056;BME280;67666;55.862;49.094;2023-02-12T22:50:40;100444.50;;;20.44;22.61
78056;BME280;67666;55.862;49.094;2023-02-12T22:53:07;100436.84;;;20.30;22.77
78056;BME280;67666;55.862;49.094;2023-02-12T22:55:35;100442.06;;;20.30;22.51
78056;BME280;67666;55.862;49.094;2023-02-12T22:58:01;100446.22;;;20.48;22.19
78056;BME280;67666;55.862;49.094;2023-02-12T23:00:28;100441.09;;;20.36;22.16
78056;BME280;67666;55.862;49.094;2023-02-12T23:02:54;100444.66;;;20.32;22.26
78056;BME280;67666;55.862;49.094;2023-02-12T23:05:20;100439.47;;;20.29;22.22
78056;BME280;67666;55.862;49.094;2023-02-12T23:07:47;100438.59;;;20.31;22.34
78056;BME280;67666;55.862;49.094;2023-02-12T23:10:13;100440.97;;;20.51;22.13
78056;BME280;67666;55.862;49.094;2023-02-12T23:12:39;100440.13;;;20.49;21.92
78056;BME280;67666;55.862;49.094;2023-02-12T23:15:06;100437.34;;;20.61;21.70
78056;BME280;67666;55.862;49.094;2023-02-12T23:17:33;100434.84;;;20.52;22.01
78056;BME280;67666;55.862;49.094;2023-02-12T23:19:59;100432.25;;;20.52;21.83
78056;BME280;67666;55.862;49.094;2023-02-12T23:22:25;100440.97;;;20.50;21.79
78056;BME280;67666;55.862;49.094;2023-02-12T23:24:52;100444.53;;;20.43;21.90
78056;BME280;67666;55.862;49.094;2023-02-12T23:27:18;100445.44;;;20.38;21.85
78056;BME280;67666;55.862;49.094;2023-02-12T23:29:44;100442.00;;;20.35;21.63
78056;BME280;67666;55.862;49.094;2023-02-12T23:32:10;100439.41;;;20.35;21.90
78056;BME280;67666;55.862;49.094;2023-02-12T23:34:37;100440.16;;;20.42;21.87
78056;BME280;67666;55.862;49.094;2023-02-12T23:37:05;100441.94;;;20.39;21.85
78056;BME280;67666;55.862;49.094;2023-02-12T23:39:31;100435.91;;;20.36;21.92
78056;BME280;67666;55.862;49.094;2023-02-12T23:41:58;100433.34;;;20.33;21.96
78056;BME280;67666;55.862;49.094;2023-02-12T23:44:24;100436.84;;;20.32;21.87
78056;BME280;67666;55.862;49.094;2023-02-12T23:46:50;100434.22;;;20.32;21.74
78056;BME280;67666;55.862;49.094;2023-02-12T23:49:18;100428.16;;;20.30;21.66
78056;BME280;67666;55.862;49.094;2023-02-12T23:51:45;100429.72;;;20.45;21.45
78056;BME280;67666;55.862;49.094;2023-02-12T23:54:11;100437.31;;;20.63;21.48
78056;BME280;67666;55.862;49.094;2023-02-12T23:56:38;100430.59;;;20.44;21.37
78056;BME280;67666;55.862;49.094;2023-02-12T23:59:04;100431.13;;;20.72;21.49
